createdAt,value
2022-10-29T06:35:11.817Z,52.40
2022-10-29T06:37:13.768Z,36.20
2022-10-29T06:39:15.317Z,31.40
2022-10-29T06:43:18.400Z,42.10
2022-10-29T06:49:22.524Z,35.50
2022-10-29T06:57:29.097Z,39.80
2022-10-29T06:59:30.511Z,33.93
2022-10-29T07:01:33.414Z,38.77
2022-10-29T07:03:34.933Z,44.00
2022-10-29T07:05:36.384Z,30.95
2022-10-29T07:07:38.084Z,36.45
2022-10-29T07:11:41.672Z,33.60
2022-10-29T07:17:56.067Z,35.00
2022-10-29T07:26:35.263Z,32.80
2022-10-29T07:28:57.066Z,42.40
2022-10-29T07:31:23.100Z,31.10
2022-10-29T07:33:44.489Z,32.20
2022-10-29T07:36:22.352Z,29.85
2022-10-29T07:39:07.454Z,33.25
2022-10-29T07:41:28.978Z,25.00
2022-10-29T07:44:03.307Z,34.97
2022-10-29T07:46:24.017Z,31.13
2022-10-29T07:51:13.590Z,32.50
2022-10-29T07:53:42.358Z,34.75
2022-10-29T07:55:54.975Z,29.07
2022-10-29T07:57:58.899Z,29.40
2022-10-29T08:02:02.243Z,27.75
2022-10-29T08:04:03.766Z,30.88
2022-10-29T08:06:05.359Z,34.35
2022-10-29T08:08:07.035Z,29.03
2022-10-29T08:10:08.782Z,39.47
2022-10-29T08:12:35.875Z,35.15
2022-10-29T08:14:37.711Z,39.10
2022-10-29T08:16:39.153Z,34.47
2022-10-29T08:18:40.651Z,43.03
2022-10-29T08:20:42.712Z,34.70
2022-10-29T08:22:44.348Z,40.85
2022-10-29T08:24:45.914Z,29.08
2022-10-29T08:26:47.570Z,36.07
2022-10-29T08:28:49.080Z,38.60
2022-10-29T08:30:50.694Z,31.30
2022-10-29T08:32:52.058Z,23.95
2022-10-29T08:34:53.753Z,28.30
2022-10-29T08:36:55.226Z,35.13
2022-10-29T08:38:56.732Z,27.50
2022-10-29T08:41:15.577Z,30.40
2022-10-29T08:43:32.654Z,25.20
2022-10-29T08:45:39.201Z,26.45
2022-10-29T08:47:55.798Z,29.00
2022-10-29T08:50:15.717Z,30.98
2022-10-29T08:52:20.351Z,25.90
2022-10-29T08:54:30.707Z,27.95
2022-10-29T08:56:36.882Z,18.88
2022-10-29T08:58:45.787Z,29.67
2022-10-29T09:00:48.250Z,24.30
2022-10-29T09:02:55.833Z,22.33
2022-10-29T09:04:57.891Z,26.77
2022-10-29T09:06:59.282Z,24.13
2022-10-29T09:09:33.141Z,17.13
2022-10-29T09:11:53.267Z,31.58
2022-10-29T09:14:17.263Z,23.10
2022-10-29T09:16:21.608Z,23.63
2022-10-29T09:18:30.612Z,25.77
2022-10-29T09:20:41.306Z,23.60
2022-10-29T09:22:42.772Z,20.13
2022-10-29T09:25:10.778Z,24.53
2022-10-29T09:27:20.172Z,26.00
2022-10-29T09:29:29.002Z,21.33
2022-10-29T09:31:43.102Z,23.15
2022-10-29T09:33:46.749Z,19.95
2022-10-29T09:35:52.465Z,23.27
2022-10-29T09:37:59.713Z,28.43
2022-10-29T09:40:04.942Z,25.03
2022-10-29T09:42:33.653Z,24.55
2022-10-29T09:44:37.708Z,26.73
2022-10-29T09:48:49.682Z,23.52
2022-10-29T09:51:09.641Z,26.15
2022-10-29T09:53:11.091Z,21.67
2022-10-29T09:55:18.644Z,22.77
2022-10-29T09:57:22.181Z,24.42
2022-10-29T09:59:23.646Z,20.10
2022-10-29T10:01:25.200Z,21.05
2022-10-29T10:05:29.617Z,19.05
2022-10-29T10:07:31.331Z,27.85
2022-10-29T10:09:50.652Z,21.50
2022-10-29T10:18:00.747Z,33.30
2022-10-29T10:20:02.532Z,12.90
2022-10-29T10:26:27.649Z,19.00
2022-10-29T10:28:32.439Z,26.75
2022-10-29T10:30:36.593Z,17.20
2022-10-29T10:34:59.021Z,26.00
2022-10-29T10:37:31.502Z,21.85
2022-10-29T10:39:44.125Z,19.00
2022-10-29T10:41:52.835Z,18.75
2022-10-29T10:44:03.502Z,14.80
2022-10-29T10:46:15.072Z,14.10
2022-10-29T10:48:19.544Z,20.15
2022-10-29T10:50:32.459Z,14.10
2022-10-29T10:54:44.782Z,14.97
2022-10-29T10:56:58.894Z,16.90
2022-10-29T10:59:15.272Z,20.02
2022-10-29T11:01:29.127Z,18.02
2022-10-29T11:03:38.065Z,20.27
2022-10-29T11:05:42.779Z,20.00
2022-10-29T11:09:48.901Z,15.00
2022-10-29T11:11:58.985Z,19.10
2022-10-29T11:14:07.747Z,19.10
2022-10-29T11:16:18.093Z,12.15
2022-10-29T11:30:31.508Z,19.70
2022-10-29T11:32:38.758Z,16.50
2022-10-29T11:34:46.269Z,16.50
2022-10-29T11:36:57.934Z,39.65
2022-10-29T11:39:11.952Z,17.50
2022-10-29T11:49:20.309Z,19.17
2022-10-29T11:51:40.277Z,27.15
2022-10-29T11:53:56.443Z,11.70
2022-10-29T11:55:57.908Z,18.60
2022-10-29T11:58:02.220Z,23.38
2022-10-29T12:00:09.151Z,25.23
2022-10-29T12:02:19.599Z,17.35
2022-10-29T12:04:27.390Z,17.45
2022-10-29T12:06:54.970Z,12.65
2022-10-29T12:09:00.102Z,10.27
2022-10-29T12:11:01.545Z,16.75
2022-10-29T12:13:11.968Z,12.23
2022-10-29T12:15:16.390Z,16.30
2022-10-29T12:17:20.866Z,13.73
2022-10-29T12:19:32.454Z,16.25
2022-10-29T12:21:39.693Z,20.05
2022-10-29T12:23:59.941Z,22.27
2022-10-29T12:26:09.615Z,15.55
2022-10-29T12:28:29.664Z,18.65
2022-10-29T12:30:34.364Z,14.70
2022-10-29T12:32:54.700Z,13.60
2022-10-29T12:35:06.185Z,14.75
2022-10-29T12:37:07.656Z,16.67
2022-10-29T12:39:18.978Z,15.18
2022-10-29T12:41:23.616Z,14.95
2022-10-29T12:43:32.613Z,20.60
2022-10-29T12:46:06.915Z,13.90
2022-10-29T12:48:15.617Z,13.43
2022-10-29T12:50:34.673Z,20.13
2022-10-29T12:52:44.494Z,25.10
2022-10-29T12:54:47.105Z,18.90
2022-10-29T12:56:50.398Z,23.73
2022-10-29T12:58:56.990Z,23.75
2022-10-29T13:00:58.674Z,17.17
2022-10-29T13:03:00.966Z,13.20
2022-10-29T13:05:11.834Z,20.00
2022-10-29T13:09:27.027Z,12.70
2022-10-29T13:11:42.170Z,20.38
2022-10-29T13:13:50.063Z,20.83
2022-10-29T13:15:57.172Z,24.00
2022-10-29T13:18:02.282Z,28.88
2022-10-29T13:20:22.468Z,18.30
2022-10-29T13:22:34.604Z,24.45
2022-10-29T13:24:36.170Z,16.77
2022-10-29T13:27:13.154Z,18.80
2022-10-29T13:29:34.497Z,24.42
2022-10-29T13:31:42.156Z,19.05
2022-10-29T13:33:43.503Z,16.75
2022-10-29T13:35:52.011Z,21.58
2022-10-29T13:38:09.918Z,21.10
2022-10-29T13:40:30.338Z,21.58
2022-10-29T13:42:44.741Z,29.98
2022-10-29T13:44:53.638Z,18.17
2022-10-29T13:47:11.911Z,20.67
2022-10-29T13:49:23.432Z,18.33
2022-10-29T13:51:43.984Z,26.63
2022-10-29T13:54:05.182Z,23.88
2022-10-29T13:56:17.826Z,23.85
2022-10-29T13:58:35.438Z,20.48
2022-10-29T14:00:45.596Z,15.23
2022-10-29T14:02:57.076Z,19.00
2022-10-29T14:05:13.489Z,17.15
2022-10-29T14:07:29.648Z,23.98
2022-10-29T14:09:37.696Z,15.15
2022-10-29T14:11:40.254Z,18.88
2022-10-29T14:13:51.252Z,19.00
2022-10-29T14:16:03.069Z,26.25
2022-10-29T14:18:17.694Z,20.95
2022-10-29T14:20:27.356Z,21.90
2022-10-29T14:22:39.060Z,18.13
2022-10-29T14:24:40.468Z,27.45
2022-10-29T14:26:43.058Z,20.40
2022-10-29T14:28:44.528Z,19.90
2022-10-29T14:30:46.742Z,17.80
2022-10-29T14:32:48.193Z,19.83
2022-10-29T14:34:50.150Z,19.75
2022-10-29T14:36:53.850Z,25.52
2022-10-29T14:39:08.188Z,20.92
2022-10-29T14:43:24.085Z,16.10
2022-10-29T14:45:28.588Z,13.75
2022-10-29T14:47:37.069Z,33.03
2022-10-29T14:49:40.712Z,26.70
2022-10-29T14:51:49.145Z,20.92
2022-10-29T14:53:59.396Z,19.75
2022-10-29T14:56:04.707Z,27.15
2022-10-29T14:58:12.300Z,11.88
2022-10-29T15:00:24.149Z,19.05
2022-10-29T15:02:43.917Z,24.38
2022-10-29T15:04:50.028Z,13.82
2022-10-29T15:06:52.758Z,15.57
2022-10-29T15:09:01.400Z,24.08
2022-10-29T15:11:02.797Z,19.50
2022-10-29T15:13:14.449Z,24.90
2022-10-29T15:15:18.750Z,23.00
2022-10-29T15:17:25.376Z,21.08
2022-10-29T15:19:27.067Z,15.68
2022-10-29T15:21:30.903Z,16.38
2022-10-29T15:23:34.116Z,25.27
2022-10-29T15:25:37.656Z,24.80
2022-10-29T15:27:39.362Z,19.85
2022-10-29T15:29:43.198Z,23.02
2022-10-29T15:31:46.400Z,18.27
2022-10-29T15:33:50.899Z,23.33
2022-10-29T15:35:54.120Z,18.77
2022-10-29T15:37:56.865Z,26.73
2022-10-29T15:39:58.244Z,18.90
2022-10-29T15:42:00.556Z,28.35
2022-10-29T15:44:02.150Z,22.42
2022-10-29T15:46:03.902Z,21.40
2022-10-29T15:48:05.729Z,29.73
2022-10-29T15:50:10.201Z,23.08
2022-10-29T15:52:15.986Z,31.33
2022-10-29T15:54:17.511Z,19.63
2022-10-29T15:56:18.995Z,28.23
2022-10-29T15:58:23.143Z,27.60
2022-10-29T16:00:24.721Z,27.35
2022-10-29T16:02:26.654Z,22.10
2022-10-29T16:04:28.235Z,27.25
2022-10-29T16:06:30.344Z,36.35
2022-10-29T16:08:33.697Z,17.75
2022-10-29T16:10:35.997Z,28.52
2022-10-29T16:12:37.563Z,33.38
2022-10-29T16:14:39.023Z,38.33
2022-10-29T16:16:40.435Z,20.38
2022-10-29T16:18:42.104Z,26.52
2022-10-29T16:20:44.085Z,30.50
2022-10-29T16:22:46.507Z,30.02
2022-10-29T16:24:47.935Z,36.97
2022-10-29T16:26:49.376Z,28.02
2022-10-29T16:28:53.166Z,26.95
2022-10-29T16:32:56.705Z,32.47
2022-10-29T16:34:59.148Z,35.08
2022-10-29T16:37:00.606Z,29.08
2022-10-29T16:39:02.081Z,32.30
2022-10-29T16:41:03.560Z,22.30
2022-10-29T16:43:08.574Z,22.02
2022-10-29T16:45:17.354Z,27.40
2022-10-29T16:47:31.275Z,30.67
2022-10-29T16:49:53.291Z,26.88
2022-10-29T16:52:18.885Z,23.40
2022-10-29T16:54:38.507Z,28.00
2022-10-29T16:56:56.466Z,26.60
2022-10-29T16:59:06.328Z,22.60
2022-10-29T17:01:14.437Z,27.70
2022-10-29T17:03:29.146Z,34.15
2022-10-29T17:05:50.501Z,24.08
2022-10-29T17:08:00.045Z,26.98
2022-10-29T17:10:06.837Z,35.30
2022-10-29T17:12:17.787Z,30.30
2022-10-29T17:14:21.627Z,27.05
2022-10-29T17:16:23.589Z,34.27
2022-10-29T17:18:25.063Z,28.08
2022-10-29T17:20:26.516Z,29.55
2022-10-29T17:22:27.893Z,40.47
2022-10-29T17:24:29.531Z,35.42
2022-10-29T17:26:31.241Z,33.63
2022-10-29T17:28:35.320Z,35.90
2022-10-29T17:30:39.322Z,35.58
2022-10-29T17:34:42.349Z,35.83
2022-10-29T17:36:44.510Z,36.65
2022-10-29T17:38:46.229Z,27.20
2022-10-29T17:40:47.710Z,37.83
2022-10-29T17:42:49.237Z,32.38
2022-10-29T17:44:50.601Z,39.08
2022-10-29T17:46:52.562Z,28.88
2022-10-29T17:48:54.604Z,34.45
2022-10-29T17:50:57.192Z,29.17
2022-10-29T17:52:58.627Z,34.75
2022-10-29T17:55:00.142Z,30.15
2022-10-29T17:57:01.536Z,28.45
2022-10-29T17:59:03.171Z,28.60
2022-10-29T18:01:05.749Z,29.85
2022-10-29T18:03:07.286Z,26.83
2022-10-29T18:05:09.069Z,28.60
2022-10-29T18:07:10.516Z,30.42
2022-10-29T18:09:13.750Z,35.75
2022-10-29T18:11:18.709Z,29.73
2022-10-29T18:13:20.069Z,21.58
2022-10-29T18:15:21.464Z,32.40
2022-10-29T18:17:22.877Z,22.80
2022-10-29T18:19:24.610Z,23.85
2022-10-29T18:21:26.036Z,19.20
2022-10-29T18:23:27.409Z,23.88
2022-10-29T18:25:29.036Z,22.25
2022-10-29T18:27:30.535Z,18.58
2022-10-29T18:29:31.905Z,26.90
2022-10-29T18:31:33.351Z,19.83
2022-10-29T18:33:34.758Z,17.42
2022-10-29T18:35:36.152Z,15.85
2022-10-29T18:37:37.641Z,20.75
2022-10-29T18:39:39.185Z,23.73
2022-10-29T18:41:40.650Z,23.50
2022-10-29T18:43:42.282Z,19.58
2022-10-29T18:45:43.802Z,17.05
2022-10-29T18:47:45.156Z,16.33
2022-10-29T18:49:46.568Z,21.40
2022-10-29T18:51:48.164Z,23.50
2022-10-29T18:53:49.984Z,19.13
2022-10-29T18:55:52.311Z,22.17
2022-10-29T18:57:54.019Z,19.25
2022-10-29T18:59:55.396Z,23.60
2022-10-29T19:01:56.938Z,21.80
2022-10-29T19:03:59.775Z,18.02
2022-10-29T19:06:02.667Z,18.50
2022-10-29T19:08:05.626Z,26.17
2022-10-29T19:10:07.340Z,20.38
2022-10-29T19:12:08.735Z,19.85
2022-10-29T19:14:12.233Z,16.13
2022-10-29T19:16:13.679Z,19.95
2022-10-29T19:18:15.778Z,21.40
2022-10-29T19:20:17.217Z,25.45
2022-10-29T19:22:18.664Z,19.48
2022-10-29T19:24:20.126Z,26.83
2022-10-29T19:26:21.997Z,23.02
2022-10-29T19:28:23.769Z,20.33
2022-10-29T19:30:25.156Z,12.18
2022-10-29T19:32:26.816Z,17.02
2022-10-29T19:34:28.307Z,22.48
2022-10-29T19:36:30.073Z,19.90
2022-10-29T19:38:31.779Z,21.88
2022-10-29T19:40:33.181Z,18.38
2022-10-29T19:42:35.136Z,18.38
2022-10-29T19:44:36.702Z,24.90
2022-10-29T19:46:38.361Z,24.25
2022-10-29T19:48:41.428Z,16.15
2022-10-29T19:50:50.447Z,31.23
2022-10-29T19:53:02.251Z,21.02
2022-10-29T19:55:11.256Z,21.80
2022-10-29T19:57:23.029Z,26.05
2022-10-29T19:59:32.579Z,22.10
2022-10-29T20:01:43.186Z,31.25
2022-10-29T20:03:52.260Z,25.67
2022-10-29T20:06:00.968Z,18.38
2022-10-29T20:08:12.950Z,13.13
2022-10-29T20:10:19.470Z,20.58
2022-10-29T20:12:28.588Z,30.10
2022-10-29T20:14:36.691Z,10.68
2022-10-29T20:16:46.069Z,25.10
2022-10-29T20:18:56.986Z,16.67
2022-10-29T20:23:08.593Z,14.15
2022-10-29T20:25:09.986Z,12.50
2022-10-29T20:27:11.390Z,16.27
2022-10-29T20:29:12.907Z,23.08
2022-10-29T20:31:24.332Z,17.42
2022-10-29T20:33:25.808Z,18.20
2022-10-29T20:35:27.292Z,22.90
2022-10-29T20:37:28.793Z,10.65
2022-10-29T20:39:33.275Z,18.00
2022-10-29T20:41:35.129Z,18.15
2022-10-29T20:43:36.555Z,21.08
2022-10-29T20:45:38.219Z,18.83
2022-10-29T20:47:39.594Z,12.35
2022-10-29T20:49:41.065Z,14.95
2022-10-29T20:51:42.465Z,17.73
2022-10-29T20:53:44.435Z,16.50
2022-10-29T20:55:49.009Z,16.85
2022-10-29T20:57:50.386Z,12.85
2022-10-29T20:59:51.786Z,16.77
2022-10-29T21:01:53.195Z,19.88
2022-10-29T21:03:54.833Z,20.88
2022-10-29T21:06:00.070Z,13.38
2022-10-29T21:08:01.526Z,22.25
2022-10-29T21:10:03.085Z,19.95
2022-10-29T21:12:04.770Z,13.25
2022-10-29T21:14:06.387Z,23.73
2022-10-29T21:16:10.511Z,22.80
2022-10-29T21:20:13.180Z,11.50
2022-10-29T21:22:18.664Z,20.55
2022-10-29T21:24:20.326Z,26.30
2022-10-29T21:26:23.316Z,11.00
2022-10-29T21:28:24.684Z,16.23
2022-10-29T21:30:26.076Z,15.00
2022-10-29T21:32:27.495Z,14.93
2022-10-29T21:34:28.932Z,17.77
2022-10-29T21:36:30.949Z,14.43
2022-10-29T21:38:33.506Z,18.92
2022-10-29T21:40:35.229Z,15.98
2022-10-29T21:42:37.042Z,12.10
2022-10-29T21:44:38.530Z,14.63
2022-10-29T21:46:40.026Z,8.25
2022-10-29T21:48:41.528Z,14.70
2022-10-29T21:50:43.149Z,21.58
2022-10-29T21:52:44.539Z,16.58
2022-10-29T21:54:45.933Z,7.40
2022-10-29T21:56:47.475Z,14.18
2022-10-29T21:58:50.466Z,7.68
2022-10-29T22:00:52.351Z,13.82
2022-10-29T22:02:54.020Z,13.15
2022-10-29T22:04:55.547Z,12.00
2022-10-29T22:06:57.252Z,13.13
2022-10-29T22:08:59.672Z,8.65
2022-10-29T22:11:01.308Z,6.43
2022-10-29T22:13:03.019Z,10.18
2022-10-29T22:15:04.716Z,14.23
2022-10-29T22:17:31.953Z,11.35
2022-10-29T22:19:33.575Z,24.38
2022-10-29T22:21:34.983Z,19.58
2022-10-29T22:23:38.185Z,19.35
2022-10-29T22:25:39.693Z,14.10
2022-10-29T22:27:41.079Z,8.90
2022-10-29T22:29:42.465Z,8.20
2022-10-29T22:31:43.857Z,10.50
2022-10-29T22:39:49.325Z,9.00
2022-10-29T22:58:12.447Z,10.30
